createdAt,value
2018-05-13T00:01:34.845Z,17.50
2018-05-13T00:04:02.435Z,17.50
2018-05-13T00:06:29.967Z,17.50
2018-05-13T00:08:58.427Z,17.40
2018-05-13T00:11:26.750Z,17.40
2018-05-13T00:13:54.710Z,17.40
2018-05-13T00:16:22.297Z,17.40
2018-05-13T00:18:50.274Z,17.30
2018-05-13T00:21:17.840Z,17.40
2018-05-13T00:23:45.406Z,17.30
2018-05-13T00:26:13.736Z,17.20
2018-05-13T00:28:41.299Z,17.20
2018-05-13T00:31:08.886Z,17.10
2018-05-13T00:33:36.659Z,17.00
2018-05-13T00:36:04.557Z,17.00
2018-05-13T00:38:33.603Z,17.00
2018-05-13T00:41:01.718Z,17.00
2018-05-13T00:43:29.281Z,17.00
2018-05-13T00:45:56.812Z,17.00
2018-05-13T00:48:24.358Z,17.00
2018-05-13T00:50:52.283Z,16.90
2018-05-13T00:53:19.852Z,16.90
2018-05-13T00:55:48.398Z,16.90
2018-05-13T00:58:15.950Z,16.90
2018-05-13T01:00:43.500Z,16.90
2018-05-13T01:03:11.067Z,16.90
2018-05-13T01:05:38.612Z,16.80
2018-05-13T01:08:06.248Z,16.50
2018-05-13T01:10:34.224Z,16.00
2018-05-13T01:13:02.189Z,15.80
2018-05-13T01:15:30.182Z,15.80
2018-05-13T01:17:59.057Z,15.70
2018-05-13T01:20:26.998Z,15.70
2018-05-13T01:22:54.552Z,15.70
2018-05-13T01:25:22.094Z,15.70
2018-05-13T01:27:50.271Z,15.80
2018-05-13T01:30:17.855Z,15.80
2018-05-13T01:32:46.555Z,15.80
2018-05-13T01:35:14.132Z,15.80
2018-05-13T01:37:41.748Z,15.80
2018-05-13T01:40:09.327Z,15.90
2018-05-13T01:42:37.809Z,15.90
2018-05-13T01:45:05.379Z,15.90
2018-05-13T01:47:33.420Z,15.90
2018-05-13T01:50:00.980Z,16.00
2018-05-13T01:52:28.580Z,16.00
2018-05-13T01:54:56.530Z,16.10
2018-05-13T01:57:24.093Z,16.10
2018-05-13T01:59:51.638Z,16.10
2018-05-13T02:02:19.189Z,16.10
2018-05-13T02:04:46.747Z,16.10
2018-05-13T02:07:14.337Z,16.10
2018-05-13T02:09:41.922Z,16.10
2018-05-13T02:12:09.508Z,16.20
2018-05-13T02:14:37.078Z,16.40
2018-05-13T02:17:04.693Z,16.40
2018-05-13T02:19:33.140Z,16.60
2018-05-13T02:22:01.641Z,16.60
2018-05-13T02:24:29.226Z,16.60
2018-05-13T02:26:57.192Z,16.70
2018-05-13T02:29:25.170Z,16.60
2018-05-13T02:31:53.663Z,16.60
2018-05-13T02:34:21.252Z,16.60
2018-05-13T02:36:48.848Z,16.70
2018-05-13T02:39:16.775Z,16.70
2018-05-13T02:41:44.316Z,16.70
2018-05-13T02:44:11.937Z,16.70
2018-05-13T02:46:39.514Z,16.70
2018-05-13T02:49:07.068Z,16.60
2018-05-13T02:51:34.626Z,16.50
2018-05-13T02:54:02.565Z,16.30
2018-05-13T02:56:30.142Z,16.30
2018-05-13T02:58:58.104Z,16.10
2018-05-13T03:01:26.081Z,16.00
2018-05-13T03:03:54.002Z,15.90
2018-05-13T03:06:22.207Z,15.90
2018-05-13T03:08:49.901Z,15.90
2018-05-13T03:11:17.512Z,15.80
2018-05-13T03:13:45.057Z,15.80
2018-05-13T03:16:12.611Z,15.70
2018-05-13T03:18:40.156Z,15.60
2018-05-13T03:21:07.724Z,15.60
2018-05-13T03:23:35.527Z,15.60
2018-05-13T03:26:03.088Z,15.60
2018-05-13T03:28:30.720Z,15.60
2018-05-13T03:30:58.346Z,15.60
2018-05-13T03:33:26.325Z,15.50
2018-05-13T03:35:53.881Z,15.50
2018-05-13T03:38:21.432Z,15.50
2018-05-13T03:40:49.007Z,15.50
2018-05-13T03:43:16.566Z,15.60
2018-05-13T03:45:44.129Z,15.60
2018-05-13T03:48:11.672Z,15.60
2018-05-13T03:50:40.355Z,15.70
2018-05-13T03:53:08.343Z,15.70
2018-05-13T03:55:35.934Z,15.70
2018-05-13T03:58:03.473Z,15.70
2018-05-13T04:00:31.043Z,15.70
2018-05-13T04:02:58.595Z,15.70
2018-05-13T04:05:26.174Z,15.70
2018-05-13T04:11:17.650Z,15.70
2018-05-13T04:13:56.916Z,15.60
2018-05-13T04:16:24.507Z,15.60
2018-05-13T04:18:52.430Z,15.50
2018-05-13T04:21:20.368Z,15.50
2018-05-13T04:23:48.708Z,15.50
2018-05-13T04:26:16.272Z,15.50
2018-05-13T04:28:43.862Z,15.60
2018-05-13T04:31:11.403Z,15.70
2018-05-13T04:33:38.959Z,15.80
2018-05-13T04:36:07.111Z,15.80
2018-05-13T04:38:34.648Z,15.90
2018-05-13T04:41:02.200Z,16.00
2018-05-13T04:43:30.148Z,16.20
2018-05-13T04:45:58.051Z,16.20
2018-05-13T04:48:25.608Z,16.20
2018-05-13T04:50:53.534Z,16.30
2018-05-13T04:53:21.649Z,16.20
2018-05-13T04:55:49.568Z,16.10
2018-05-13T04:58:17.133Z,16.10
2018-05-13T05:00:44.700Z,16.10
2018-05-13T05:03:12.760Z,16.10
2018-05-13T05:05:40.362Z,16.20
2018-05-13T05:08:07.912Z,16.30
2018-05-13T05:10:36.343Z,16.40
2018-05-13T05:13:03.922Z,16.40
2018-05-13T05:15:31.480Z,16.50
2018-05-13T05:17:59.324Z,16.60
2018-05-13T05:20:26.885Z,16.70
2018-05-13T05:22:54.430Z,16.60
2018-05-13T05:25:22.088Z,16.70
2018-05-13T05:27:49.682Z,16.70
2018-05-13T05:30:17.280Z,16.70
2018-05-13T05:32:45.543Z,16.80
2018-05-13T05:35:13.131Z,16.80
2018-05-13T05:37:41.634Z,16.90
2018-05-13T05:40:09.307Z,17.00
2018-05-13T05:42:36.856Z,17.10
2018-05-13T05:45:05.157Z,17.30
2018-05-13T05:47:32.721Z,17.40
2018-05-13T05:50:00.296Z,17.60
2018-05-13T05:52:27.879Z,17.70
2018-05-13T05:54:55.444Z,17.90
2018-05-13T05:57:23.085Z,17.90
2018-05-13T05:59:51.040Z,18.00
2018-05-13T06:02:19.279Z,18.00
2018-05-13T06:04:46.890Z,18.00
2018-05-13T06:07:14.463Z,18.00
2018-05-13T06:09:42.464Z,18.20
2018-05-13T06:12:10.623Z,18.20
2018-05-13T06:14:38.114Z,18.30
2018-05-13T06:17:06.558Z,18.50
2018-05-13T06:19:34.132Z,18.70
2018-05-13T06:22:01.688Z,18.80
2018-05-13T06:24:29.270Z,18.90
2018-05-13T06:26:56.827Z,18.90
2018-05-13T06:29:24.376Z,19.10
2018-05-13T06:31:52.057Z,19.20
2018-05-13T06:34:19.986Z,19.30
2018-05-13T06:36:47.567Z,19.30
2018-05-13T06:39:15.468Z,19.30
2018-05-13T06:41:43.129Z,19.40
2018-05-13T06:44:10.707Z,19.50
2018-05-13T06:46:38.313Z,19.70
2018-05-13T06:49:05.890Z,19.80
2018-05-13T06:51:33.986Z,19.90
2018-05-13T06:54:01.464Z,19.90
2018-05-13T06:56:29.440Z,19.70
2018-05-13T06:58:57.460Z,19.80
2018-05-13T07:01:25.075Z,19.80
2018-05-13T07:03:52.605Z,19.90
2018-05-13T07:06:20.209Z,20.10
2018-05-13T07:08:47.844Z,20.20
2018-05-13T07:11:15.395Z,20.30
2018-05-13T07:13:43.400Z,20.20
2018-05-13T07:16:11.938Z,20.20
2018-05-13T07:18:40.356Z,20.20
2018-05-13T07:21:08.378Z,20.40
2018-05-13T07:23:36.905Z,20.40
2018-05-13T07:26:04.879Z,20.80
2018-05-13T07:28:32.841Z,20.90
2018-05-13T07:31:00.826Z,21.10
2018-05-13T07:33:28.459Z,21.00
2018-05-13T07:35:56.042Z,21.30
2018-05-13T07:38:23.982Z,21.70
2018-05-13T07:40:51.544Z,21.70
2018-05-13T07:43:19.803Z,21.70
2018-05-13T07:45:47.311Z,21.70
2018-05-13T07:48:14.884Z,21.70
2018-05-13T07:50:42.490Z,21.70
2018-05-13T07:53:10.049Z,21.70
2018-05-13T07:55:37.607Z,21.70
2018-05-13T07:58:05.222Z,21.80
2018-05-13T08:00:32.794Z,22.10
2018-05-13T08:03:00.349Z,22.30
2018-05-13T08:05:28.891Z,22.60
2018-05-13T08:07:56.857Z,22.90
2018-05-13T08:10:24.813Z,22.80
2018-05-13T08:12:52.395Z,22.80
2018-05-13T08:15:20.408Z,22.80
2018-05-13T08:17:48.017Z,22.80
2018-05-13T08:20:15.636Z,22.80
2018-05-13T08:22:43.108Z,22.70
2018-05-13T08:25:10.711Z,22.60
2018-05-13T08:27:38.984Z,22.80
2018-05-13T08:30:06.528Z,23.10
2018-05-13T08:32:34.453Z,23.70
2018-05-13T08:35:02.017Z,23.70
2018-05-13T08:37:29.570Z,24.10
2018-05-13T08:39:57.161Z,24.20
2018-05-13T08:42:24.728Z,24.10
2018-05-13T08:44:52.279Z,24.10
2018-05-13T08:47:20.624Z,24.30
2018-05-13T08:49:48.195Z,24.60
2018-05-13T08:52:15.757Z,25.00
2018-05-13T08:54:43.336Z,25.40
2018-05-13T08:57:10.900Z,25.40
2018-05-13T08:59:38.514Z,25.30
2018-05-13T09:02:06.044Z,25.40
2018-05-13T09:04:33.976Z,25.70
2018-05-13T09:07:01.536Z,25.70
2018-05-13T09:09:29.150Z,25.60
2018-05-13T09:11:56.692Z,25.40
2018-05-13T09:14:24.425Z,25.20
2018-05-13T09:16:52.011Z,24.90
2018-05-13T09:19:20.037Z,24.80
2018-05-13T09:21:47.605Z,24.80
2018-05-13T09:24:15.192Z,25.00
2018-05-13T09:26:42.884Z,25.00
2018-05-13T09:29:10.444Z,24.90
2018-05-13T09:31:38.009Z,25.10
2018-05-13T09:34:05.577Z,25.20
2018-05-13T09:36:33.160Z,25.10
2018-05-13T09:39:00.735Z,25.00
2018-05-13T09:41:28.764Z,25.10
2018-05-13T09:43:56.334Z,25.00
2018-05-13T09:46:23.905Z,25.00
2018-05-13T09:48:51.514Z,24.90
2018-05-13T09:51:19.499Z,25.00
2018-05-13T09:53:47.041Z,25.00
2018-05-13T09:56:14.676Z,25.10
2018-05-13T09:58:43.295Z,25.10
2018-05-13T10:01:11.301Z,25.30
2018-05-13T10:03:40.556Z,25.30
2018-05-13T10:06:08.955Z,25.40
2018-05-13T10:08:36.540Z,25.40
2018-05-13T10:11:04.071Z,25.50
2018-05-13T10:13:31.669Z,25.70
2018-05-13T10:15:59.221Z,25.90
2018-05-13T10:18:26.773Z,26.00
2018-05-13T10:20:54.379Z,26.10
2018-05-13T10:23:22.032Z,26.00
2018-05-13T10:25:49.585Z,25.60
2018-05-13T10:28:17.174Z,25.60
2018-05-13T10:30:45.187Z,26.10
2018-05-13T10:33:12.752Z,26.10
2018-05-13T10:35:40.330Z,26.20
2018-05-13T10:38:07.891Z,26.10
2018-05-13T10:40:35.476Z,26.40
2018-05-13T10:43:03.039Z,26.20
2018-05-13T10:45:30.689Z,26.30
2018-05-13T10:47:58.234Z,26.50
2018-05-13T10:50:29.424Z,26.50
2018-05-13T10:52:57.722Z,26.50
2018-05-13T10:55:25.399Z,26.50
2018-05-13T10:57:53.061Z,26.40
2018-05-13T11:00:22.270Z,26.40
2018-05-13T11:02:50.549Z,26.60
2018-05-13T11:05:18.180Z,26.80
2018-05-13T11:07:45.789Z,26.90
2018-05-13T11:10:13.380Z,26.90
2018-05-13T11:12:41.311Z,26.80
2018-05-13T11:15:08.858Z,26.80
2018-05-13T11:17:36.477Z,27.10
2018-05-13T11:20:04.043Z,27.20
2018-05-13T11:22:31.613Z,27.30
2018-05-13T11:24:59.178Z,27.40
2018-05-13T11:27:26.740Z,27.50
2018-05-13T11:29:54.344Z,27.30
2018-05-13T11:32:21.907Z,27.20
2018-05-13T11:34:49.480Z,27.20
2018-05-13T11:37:17.033Z,27.20
2018-05-13T11:39:44.593Z,27.30
2018-05-13T11:42:12.538Z,26.80
2018-05-13T11:44:40.082Z,26.80
2018-05-13T11:47:07.642Z,26.70
2018-05-13T11:49:35.856Z,26.90
2018-05-13T11:52:03.409Z,26.60
2018-05-13T11:54:31.357Z,27.60
2018-05-13T11:56:58.908Z,27.60
2018-05-13T11:59:26.516Z,28.50
2018-05-13T12:01:54.479Z,30.60
2018-05-13T12:04:22.469Z,31.20
2018-05-13T12:06:50.020Z,31.20
2018-05-13T12:09:18.069Z,32.30
2018-05-13T12:11:46.283Z,32.30
2018-05-13T12:14:19.625Z,31.00
2018-05-13T12:16:47.965Z,31.00
2018-05-13T12:19:18.225Z,29.30
2018-05-13T12:21:45.785Z,28.00
2018-05-13T12:24:13.611Z,27.50
2018-05-13T12:26:41.165Z,27.20
2018-05-13T12:29:08.767Z,26.50
2018-05-13T12:31:36.329Z,26.50
2018-05-13T12:34:03.840Z,26.80
2018-05-13T12:36:31.419Z,28.30
2018-05-13T12:38:58.971Z,30.20
2018-05-13T12:41:26.537Z,32.00
2018-05-13T12:43:54.102Z,32.50
2018-05-13T12:46:21.649Z,32.80
2018-05-13T12:48:49.235Z,33.60
2018-05-13T12:51:16.785Z,33.70
2018-05-13T12:53:44.348Z,33.70
2018-05-13T12:56:11.991Z,32.00
2018-05-13T12:58:39.478Z,30.10
2018-05-13T13:01:07.043Z,28.70
2018-05-13T13:03:35.578Z,28.00
2018-05-13T13:06:03.120Z,27.20
2018-05-13T13:08:30.719Z,26.60
2018-05-13T13:10:58.273Z,26.20
2018-05-13T13:13:26.783Z,26.90
2018-05-13T13:15:54.380Z,28.00
2018-05-13T13:20:57.644Z,30.70
2018-05-13T13:23:25.227Z,31.50
2018-05-13T13:25:52.880Z,31.40
2018-05-13T13:28:20.814Z,30.70
2018-05-13T13:30:49.974Z,30.70
2018-05-13T13:33:17.563Z,30.90
2018-05-13T13:35:45.166Z,31.00
2018-05-13T13:38:13.646Z,31.20
2018-05-13T13:40:41.239Z,31.00
2018-05-13T13:43:09.185Z,29.40
2018-05-13T13:45:36.749Z,29.40
2018-05-13T13:48:04.867Z,28.70
2018-05-13T13:50:32.412Z,28.70
2018-05-13T13:53:00.013Z,28.90
2018-05-13T13:55:27.604Z,29.30
2018-05-13T13:57:55.576Z,28.80
2018-05-13T14:00:23.553Z,28.60
2018-05-13T14:02:51.531Z,28.30
2018-05-13T14:05:19.079Z,28.30
2018-05-13T14:07:47.099Z,27.10
2018-05-13T14:10:14.690Z,27.20
2018-05-13T14:12:42.324Z,26.90
2018-05-13T14:15:09.868Z,26.70
2018-05-13T14:17:37.472Z,26.70
2018-05-13T14:20:05.178Z,26.50
2018-05-13T14:22:32.593Z,26.30
2018-05-13T14:25:00.152Z,25.90
2018-05-13T14:27:27.736Z,25.50
2018-05-13T14:29:55.324Z,25.00
2018-05-13T14:32:22.889Z,24.70
2018-05-13T14:34:50.586Z,24.30
2018-05-13T14:37:18.134Z,24.00
2018-05-13T14:39:45.802Z,23.80
2018-05-13T14:42:13.399Z,23.60
2018-05-13T14:44:41.396Z,23.20
2018-05-13T14:47:08.956Z,23.20
2018-05-13T14:49:37.243Z,23.00
2018-05-13T14:52:04.809Z,22.80
2018-05-13T14:54:32.391Z,22.70
2018-05-13T14:57:00.036Z,22.40
2018-05-13T14:59:27.592Z,22.10
2018-05-13T15:01:55.122Z,21.80
2018-05-13T15:04:22.753Z,21.70
2018-05-13T15:06:50.705Z,21.50
2018-05-13T15:09:18.343Z,21.50
2018-05-13T15:11:45.936Z,21.50
2018-05-13T15:14:14.561Z,21.40
2018-05-13T15:16:42.215Z,21.40
2018-05-13T15:19:09.663Z,21.40
2018-05-13T15:21:37.250Z,21.40
2018-05-13T15:24:04.808Z,21.40
2018-05-13T15:26:32.355Z,21.40
2018-05-13T15:29:00.032Z,21.40
2018-05-13T15:31:27.507Z,21.30
2018-05-13T15:33:55.086Z,21.30
2018-05-13T15:36:23.452Z,21.30
2018-05-13T15:38:51.017Z,21.10
2018-05-13T15:41:18.636Z,21.10
2018-05-13T15:43:46.228Z,21.00
2018-05-13T15:46:13.809Z,20.80
2018-05-13T15:48:41.393Z,20.70
2018-05-13T15:51:09.332Z,20.50
2018-05-13T15:53:37.079Z,20.40
2018-05-13T15:56:04.728Z,20.30
2018-05-13T15:58:32.307Z,20.20
2018-05-13T16:00:59.851Z,20.10
2018-05-13T16:03:27.543Z,20.00
2018-05-13T16:05:55.121Z,20.00
2018-05-13T16:08:24.580Z,19.90
2018-05-13T16:10:52.153Z,19.90
2018-05-13T16:13:19.796Z,19.90
2018-05-13T16:15:47.371Z,20.00
2018-05-13T16:18:14.936Z,20.00
2018-05-13T16:20:42.523Z,20.10
2018-05-13T16:23:10.132Z,20.20
2018-05-13T16:25:37.878Z,20.40
2018-05-13T16:28:05.809Z,20.70
2018-05-13T16:30:33.403Z,20.70
2018-05-13T16:33:01.009Z,20.90
2018-05-13T16:35:28.602Z,20.90
2018-05-13T16:37:57.205Z,21.00
2018-05-13T16:40:25.226Z,20.90
2018-05-13T16:42:52.840Z,20.90
2018-05-13T16:45:20.813Z,20.40
2018-05-13T16:47:48.450Z,20.40
2018-05-13T16:50:16.453Z,20.00
2018-05-13T16:52:44.339Z,20.00
2018-05-13T16:55:11.883Z,19.70
2018-05-13T16:57:39.487Z,19.50
2018-05-13T17:00:07.036Z,19.40
2018-05-13T17:02:34.648Z,19.20
2018-05-13T17:05:02.394Z,19.10
2018-05-13T17:07:30.190Z,19.00
2018-05-13T17:09:57.748Z,19.00
2018-05-13T17:12:26.004Z,18.90
2018-05-13T17:14:53.571Z,18.80
2018-05-13T17:17:22.843Z,18.70
2018-05-13T17:19:50.376Z,18.70
2018-05-13T17:22:17.961Z,18.60
2018-05-13T17:24:45.595Z,18.60
2018-05-13T17:27:13.225Z,18.50
2018-05-13T17:29:40.792Z,18.60
2018-05-13T17:32:11.717Z,18.50
2018-05-13T17:34:39.300Z,18.50
2018-05-13T17:37:06.929Z,18.50
2018-05-13T17:39:34.529Z,18.40
2018-05-13T17:42:02.086Z,18.40
2018-05-13T17:44:30.022Z,18.30
2018-05-13T17:46:57.955Z,18.20
2018-05-13T17:49:25.514Z,18.20
2018-05-13T17:51:53.123Z,18.20
2018-05-13T17:54:20.658Z,18.10
2018-05-13T17:56:48.604Z,17.90
2018-05-13T17:59:16.176Z,17.90
2018-05-13T18:01:43.735Z,17.80
2018-05-13T18:04:11.301Z,17.70
2018-05-13T18:06:38.853Z,17.70
2018-05-13T18:09:06.817Z,17.50
2018-05-13T18:11:34.465Z,17.50
2018-05-13T18:14:02.043Z,17.50
2018-05-13T18:16:29.607Z,17.50
2018-05-13T18:18:57.597Z,17.40
2018-05-13T18:21:25.723Z,17.40
2018-05-13T18:23:53.267Z,17.40
2018-05-13T18:26:20.860Z,17.40
2018-05-13T18:28:48.428Z,17.50
2018-05-13T18:31:16.208Z,17.50
2018-05-13T18:33:44.169Z,17.50
2018-05-13T18:36:12.235Z,17.40
2018-05-13T18:38:39.870Z,17.40
2018-05-13T18:41:07.449Z,17.40
2018-05-13T18:43:35.463Z,17.30
2018-05-13T18:46:03.012Z,17.30
2018-05-13T18:48:30.875Z,17.20
2018-05-13T18:50:58.473Z,17.20
2018-05-13T18:53:26.049Z,17.20
2018-05-13T18:55:53.657Z,17.10
2018-05-13T18:58:21.588Z,16.90
2018-05-13T19:00:49.206Z,16.90
2018-05-13T19:03:17.066Z,16.90
2018-05-13T19:05:44.655Z,16.90
2018-05-13T19:08:12.220Z,16.80
2018-05-13T19:10:39.977Z,16.80
2018-05-13T19:13:07.568Z,16.70
2018-05-13T19:15:35.133Z,16.70
2018-05-13T19:18:03.093Z,16.70
2018-05-13T19:20:30.730Z,16.70
2018-05-13T19:22:58.308Z,16.70
2018-05-13T19:25:27.983Z,16.60
2018-05-13T19:27:58.387Z,16.60
2018-05-13T19:30:26.034Z,16.60
2018-05-13T19:32:54.110Z,16.50
2018-05-13T19:35:22.129Z,16.50
2018-05-13T19:40:25.753Z,16.50
2018-05-13T19:42:54.573Z,16.50
2018-05-13T19:45:22.832Z,16.50
2018-05-13T19:47:50.475Z,16.50
2018-05-13T19:50:18.121Z,16.50
2018-05-13T19:52:45.716Z,16.50
2018-05-13T19:55:13.654Z,16.50
2018-05-13T19:57:41.227Z,16.50
2018-05-13T20:00:08.784Z,16.40
2018-05-13T20:02:36.392Z,16.40
2018-05-13T20:05:04.571Z,16.40
2018-05-13T20:07:32.151Z,16.40
2018-05-13T20:10:00.136Z,16.30
2018-05-13T20:12:27.727Z,16.20
2018-05-13T20:14:55.522Z,16.20
2018-05-13T20:17:23.202Z,16.10
2018-05-13T20:19:50.976Z,16.10
2018-05-13T20:22:18.761Z,16.10
2018-05-13T20:24:46.653Z,16.10
2018-05-13T20:27:14.725Z,16.10
2018-05-13T20:29:42.302Z,16.10
2018-05-13T20:32:10.282Z,16.00
2018-05-13T20:34:38.317Z,16.00
2018-05-13T20:37:06.197Z,16.00
2018-05-13T20:39:33.869Z,15.90
2018-05-13T20:42:02.529Z,15.90
2018-05-13T20:44:30.175Z,15.90
2018-05-13T20:46:57.760Z,15.80
2018-05-13T20:49:25.404Z,15.80
2018-05-13T20:51:53.528Z,15.80
2018-05-13T20:54:22.324Z,15.70
2018-05-13T20:56:49.974Z,15.70
2018-05-13T20:59:17.934Z,15.70
2018-05-13T21:01:45.892Z,15.70
2018-05-13T21:04:13.879Z,15.70
2018-05-13T21:06:42.013Z,15.70
2018-05-13T21:09:10.436Z,15.70
2018-05-13T21:11:38.070Z,15.80
2018-05-13T21:16:54.789Z,15.70
2018-05-13T21:22:34.080Z,15.80
2018-05-13T21:28:15.135Z,15.80
2018-05-13T21:55:50.937Z,15.80
2018-05-13T21:58:24.927Z,15.70
2018-05-13T22:00:53.324Z,15.70
2018-05-13T22:03:21.008Z,15.70
2018-05-13T22:05:48.594Z,15.70
2018-05-13T22:08:16.177Z,15.70
2018-05-13T22:10:44.685Z,15.70
2018-05-13T22:13:12.312Z,15.60
2018-05-13T22:15:40.967Z,15.60
2018-05-13T22:18:08.950Z,15.60
2018-05-13T22:20:36.911Z,15.60
2018-05-13T22:23:04.494Z,15.60
2018-05-13T22:25:32.045Z,15.60
2018-05-13T22:28:00.145Z,15.50
2018-05-13T22:30:27.760Z,15.50
2018-05-13T22:32:55.465Z,15.50
2018-05-13T22:35:26.159Z,15.50
2018-05-13T22:37:54.623Z,15.50
2018-05-13T22:40:22.319Z,15.50
2018-05-13T22:42:50.943Z,15.40
2018-05-13T22:45:19.483Z,15.40
2018-05-13T22:47:48.434Z,15.40
2018-05-13T22:50:16.521Z,15.40
2018-05-13T22:52:44.069Z,15.40
2018-05-13T22:55:12.006Z,15.30
2018-05-13T23:00:17.839Z,15.30
2018-05-13T23:02:46.856Z,15.30
2018-05-13T23:05:14.540Z,15.30
2018-05-13T23:07:43.197Z,15.30
2018-05-13T23:10:10.740Z,15.30
2018-05-13T23:12:40.782Z,15.20
2018-05-13T23:15:09.569Z,15.20
2018-05-13T23:17:38.847Z,15.20
2018-05-13T23:20:13.608Z,15.20
2018-05-13T23:29:35.638Z,15.30
2018-05-13T23:32:03.985Z,15.30
2018-05-13T23:34:44.574Z,15.30
2018-05-13T23:46:28.439Z,15.20
2018-05-13T23:48:58.198Z,15.20
2018-05-13T23:51:36.724Z,15.20
2018-05-13T23:57:18.596Z,15.10
